createdAt,value
2022-11-05T00:00:14.798Z,87.23
2022-11-05T00:02:59.560Z,87.99
2022-11-05T00:05:44.792Z,88.07
2022-11-05T00:08:29.536Z,87.20
2022-11-05T00:10:56.037Z,87.48
2022-11-05T00:13:41.104Z,87.78
2022-11-05T00:16:26.348Z,87.05
2022-11-05T00:19:09.883Z,87.91
2022-11-05T00:21:57.588Z,88.29
2022-11-05T00:24:43.386Z,88.18
2022-11-05T00:27:10.335Z,88.72
2022-11-05T00:29:36.687Z,88.81
2022-11-05T00:32:03.337Z,88.03
2022-11-05T00:34:29.667Z,88.02
2022-11-05T00:36:56.278Z,87.88
2022-11-05T00:39:22.636Z,87.37
2022-11-05T00:42:09.036Z,87.81
2022-11-05T00:44:54.337Z,88.26
2022-11-05T00:47:49.740Z,88.12
2022-11-05T00:50:17.029Z,87.12
2022-11-05T00:52:55.386Z,86.57
2022-11-05T00:55:51.352Z,86.91
2022-11-05T00:58:20.896Z,86.68
2022-11-05T01:00:50.298Z,85.85
2022-11-05T01:03:19.477Z,87.21
2022-11-05T01:05:48.726Z,88.69
2022-11-05T01:08:17.202Z,88.17
2022-11-05T01:10:45.892Z,89.44
2022-11-05T01:13:14.048Z,89.34
2022-11-05T01:15:41.421Z,88.83
2022-11-05T01:18:08.146Z,90.54
2022-11-05T01:20:34.478Z,91.44
2022-11-05T01:23:00.928Z,91.38
2022-11-05T01:25:27.357Z,92.17
2022-11-05T01:27:53.751Z,92.25
2022-11-05T01:30:21.139Z,92.12
2022-11-05T01:32:47.602Z,91.20
2022-11-05T01:35:16.113Z,91.32
2022-11-05T01:37:42.833Z,91.31
2022-11-05T01:40:19.048Z,91.37
2022-11-05T01:42:45.942Z,92.01
2022-11-05T01:45:21.589Z,92.64
2022-11-05T01:48:11.699Z,92.32
2022-11-05T01:50:44.281Z,92.47
2022-11-05T01:53:19.742Z,91.33
2022-11-05T01:56:09.437Z,91.77
2022-11-05T01:58:50.745Z,92.28
2022-11-05T02:01:18.025Z,91.76
2022-11-05T02:03:47.371Z,91.94
2022-11-05T02:06:16.517Z,91.68
2022-11-05T02:08:57.392Z,91.46
2022-11-05T02:11:24.299Z,91.80
2022-11-05T02:13:50.896Z,92.14
2022-11-05T02:16:34.821Z,92.26
2022-11-05T02:19:22.890Z,92.31
2022-11-05T02:22:25.969Z,92.53
2022-11-05T02:25:11.046Z,92.95
2022-11-05T02:28:16.309Z,93.30
2022-11-05T02:30:52.829Z,92.97
2022-11-05T02:33:29.773Z,93.11
2022-11-05T02:36:14.822Z,93.13
2022-11-05T02:39:13.577Z,93.30
2022-11-05T02:41:48.734Z,93.51
2022-11-05T02:44:26.495Z,93.31
2022-11-05T02:47:18.145Z,93.90
2022-11-05T02:50:14.069Z,93.88
2022-11-05T02:52:50.157Z,93.64
2022-11-05T02:55:27.583Z,93.82
2022-11-05T02:57:53.988Z,94.08
2022-11-05T03:00:41.836Z,94.18
2022-11-05T03:03:14.835Z,94.83
2022-11-05T03:06:19.357Z,94.95
2022-11-05T03:09:19.939Z,94.92
2022-11-05T03:11:58.789Z,94.56
2022-11-05T03:14:33.353Z,95.11
2022-11-05T03:17:03.539Z,94.88
2022-11-05T03:19:37.235Z,95.11
2022-11-05T03:22:13.703Z,95.17
2022-11-05T03:24:46.404Z,95.27
2022-11-05T03:27:19.581Z,95.11
2022-11-05T03:30:01.725Z,94.58
2022-11-05T03:32:32.362Z,94.37
2022-11-05T03:35:04.889Z,94.59
2022-11-05T03:37:36.363Z,94.85
2022-11-05T03:40:07.569Z,94.64
2022-11-05T03:42:35.678Z,95.00
2022-11-05T03:45:09.168Z,95.15
2022-11-05T03:47:39.287Z,95.58
2022-11-05T03:50:25.157Z,95.36
2022-11-05T03:52:56.216Z,95.50
2022-11-05T03:55:26.113Z,94.99
2022-11-05T03:57:55.130Z,95.31
2022-11-05T04:00:23.380Z,95.58
2022-11-05T04:02:50.205Z,95.93
2022-11-05T04:05:16.854Z,95.94
2022-11-05T04:08:03.094Z,96.58
2022-11-05T04:11:05.293Z,96.91
2022-11-05T04:13:32.193Z,96.65
2022-11-05T04:16:17.738Z,97.03
2022-11-05T04:18:44.146Z,96.61
2022-11-05T04:21:29.917Z,96.42
2022-11-05T04:24:08.718Z,96.17
2022-11-05T04:26:43.660Z,96.07
2022-11-05T04:29:28.808Z,95.11
2022-11-05T04:31:55.586Z,95.42
2022-11-05T04:34:22.265Z,95.32
2022-11-05T04:36:49.834Z,95.36
2022-11-05T04:39:17.936Z,95.12
2022-11-05T04:41:46.223Z,94.50
2022-11-05T04:44:12.569Z,93.91
2022-11-05T04:46:38.898Z,94.46
2022-11-05T04:49:05.272Z,94.20
2022-11-05T04:51:31.632Z,94.80
2022-11-05T04:53:57.979Z,94.45
2022-11-05T04:56:25.232Z,94.59
2022-11-05T04:58:51.945Z,94.43
2022-11-05T05:01:21.486Z,94.46
2022-11-05T05:03:52.338Z,94.58
2022-11-05T05:06:18.745Z,94.48
2022-11-05T05:08:46.993Z,94.16
2022-11-05T05:11:16.053Z,94.18
2022-11-05T05:13:42.776Z,94.49
2022-11-05T05:16:17.158Z,94.64
2022-11-05T05:18:46.231Z,94.57
2022-11-05T05:21:31.965Z,94.85
2022-11-05T05:23:58.476Z,94.54
2022-11-05T05:26:24.876Z,94.92
2022-11-05T05:28:53.607Z,94.55
2022-11-05T05:31:20.925Z,94.88
2022-11-05T05:33:47.502Z,94.53
2022-11-05T05:36:13.947Z,94.02
2022-11-05T05:38:40.623Z,94.87
2022-11-05T05:41:07.188Z,94.44
2022-11-05T05:43:34.213Z,94.56
2022-11-05T05:46:04.912Z,94.77
2022-11-05T05:48:31.832Z,94.98
2022-11-05T05:51:02.464Z,94.77
2022-11-05T05:53:29.626Z,95.18
2022-11-05T05:55:57.044Z,95.17
2022-11-05T05:58:26.760Z,94.87
2022-11-05T06:00:55.693Z,94.47
2022-11-05T06:03:22.081Z,94.84
2022-11-05T06:05:48.504Z,94.74
2022-11-05T06:08:14.858Z,94.31
2022-11-05T06:10:42.226Z,94.35
2022-11-05T06:13:08.787Z,94.15
2022-11-05T06:15:36.160Z,94.54
2022-11-05T06:18:02.652Z,95.16
2022-11-05T06:20:29.143Z,94.68
2022-11-05T06:22:59.366Z,94.40
2022-11-05T06:25:26.037Z,94.69
2022-11-05T06:27:53.836Z,94.67
2022-11-05T06:30:21.657Z,94.42
2022-11-05T06:32:48.038Z,93.85
2022-11-05T06:35:14.430Z,94.11
2022-11-05T06:37:40.758Z,93.75
2022-11-05T06:40:08.004Z,94.43
2022-11-05T06:42:34.591Z,93.66
2022-11-05T06:45:01.028Z,93.92
2022-11-05T06:47:27.600Z,94.40
2022-11-05T06:49:53.999Z,93.90
2022-11-05T06:52:20.721Z,93.98
2022-11-05T06:54:47.235Z,92.89
2022-11-05T06:57:13.639Z,92.86
2022-11-05T06:59:40.146Z,93.30
2022-11-05T07:02:09.731Z,92.82
2022-11-05T07:04:36.258Z,92.54
2022-11-05T07:07:02.736Z,93.17
2022-11-05T07:09:29.270Z,93.70
2022-11-05T07:11:55.772Z,93.53
2022-11-05T07:14:22.237Z,92.79
2022-11-05T07:16:48.638Z,92.66
2022-11-05T07:19:14.975Z,92.92
2022-11-05T07:21:41.336Z,92.43
2022-11-05T07:24:08.177Z,92.79
2022-11-05T07:26:34.831Z,92.81
2022-11-05T07:29:01.490Z,92.26
2022-11-05T07:31:27.982Z,91.70
2022-11-05T07:33:54.356Z,91.76
2022-11-05T07:36:20.700Z,90.95
2022-11-05T07:38:47.042Z,90.49
2022-11-05T07:41:13.394Z,89.62
2022-11-05T07:43:39.823Z,88.65
2022-11-05T07:46:09.866Z,88.46
2022-11-05T07:48:39.938Z,86.92
2022-11-05T07:51:06.309Z,85.82
2022-11-05T07:53:32.717Z,85.23
2022-11-05T07:55:59.061Z,84.49
2022-11-05T07:58:25.620Z,83.78
2022-11-05T08:00:53.132Z,79.33
2022-11-05T08:03:20.428Z,75.34
2022-11-05T08:05:48.270Z,73.97
2022-11-05T08:08:19.745Z,73.92
2022-11-05T08:10:47.233Z,70.29
2022-11-05T08:13:14.849Z,68.35
2022-11-05T08:15:42.784Z,71.88
2022-11-05T08:18:14.626Z,70.32
2022-11-05T08:20:43.225Z,70.47
2022-11-05T08:23:10.817Z,71.90
2022-11-05T08:25:37.907Z,72.99
2022-11-05T08:28:07.661Z,73.56
2022-11-05T08:30:34.537Z,74.36
2022-11-05T08:33:04.256Z,70.75
2022-11-05T08:35:31.345Z,70.67
2022-11-05T08:38:03.016Z,70.39
2022-11-05T08:40:37.183Z,72.64
2022-11-05T08:43:05.286Z,73.68
2022-11-05T08:45:31.762Z,76.98
2022-11-05T08:48:06.250Z,78.86
2022-11-05T08:50:33.509Z,80.88
2022-11-05T08:53:00.013Z,81.00
2022-11-05T08:55:27.036Z,82.91
2022-11-05T08:58:01.259Z,83.03
2022-11-05T09:00:30.179Z,84.09
2022-11-05T09:02:59.922Z,84.79
2022-11-05T09:05:27.295Z,84.52
2022-11-05T09:07:59.395Z,84.35
2022-11-05T09:10:28.320Z,85.63
2022-11-05T09:12:54.667Z,85.95
2022-11-05T09:15:21.102Z,85.08
2022-11-05T09:17:47.434Z,84.67
2022-11-05T09:20:13.959Z,84.32
2022-11-05T09:22:43.302Z,84.22
2022-11-05T09:25:10.193Z,84.04
2022-11-05T09:27:36.532Z,81.42
2022-11-05T09:30:03.812Z,82.91
2022-11-05T09:32:32.966Z,81.73
2022-11-05T09:35:02.366Z,81.35
2022-11-05T09:37:29.627Z,79.62
2022-11-05T09:39:56.419Z,79.00
2022-11-05T09:42:29.130Z,80.92
2022-11-05T09:45:01.787Z,79.34
2022-11-05T09:47:36.728Z,79.06
2022-11-05T09:50:07.674Z,77.92
2022-11-05T09:52:34.694Z,79.17
2022-11-05T09:55:04.862Z,79.45
2022-11-05T09:57:49.064Z,79.41
2022-11-05T10:00:19.084Z,79.60
2022-11-05T10:02:53.580Z,80.01
2022-11-05T10:05:22.068Z,78.17
2022-11-05T10:07:53.710Z,78.54
2022-11-05T10:10:59.197Z,78.19
2022-11-05T10:13:40.086Z,77.75
2022-11-05T10:16:17.974Z,78.25
2022-11-05T10:18:50.460Z,76.66
2022-11-05T10:21:32.229Z,78.08
2022-11-05T10:24:14.094Z,77.44
2022-11-05T10:26:40.484Z,78.10
2022-11-05T10:29:06.996Z,79.46
2022-11-05T10:31:37.034Z,79.11
2022-11-05T10:34:07.921Z,76.60
2022-11-05T10:36:37.281Z,75.08
2022-11-05T10:39:18.353Z,75.79
2022-11-05T10:42:17.068Z,76.23
2022-11-05T10:45:02.202Z,78.75
2022-11-05T10:47:57.903Z,75.67
2022-11-05T10:50:27.805Z,75.37
2022-11-05T10:53:02.633Z,76.27
2022-11-05T10:55:51.310Z,76.63
2022-11-05T10:58:17.660Z,78.10
2022-11-05T11:00:58.372Z,75.77
2022-11-05T11:03:35.689Z,77.53
2022-11-05T11:06:27.493Z,77.91
2022-11-05T11:08:57.545Z,79.77
2022-11-05T11:11:41.468Z,80.08
2022-11-05T11:14:14.072Z,79.61
2022-11-05T11:16:46.244Z,78.32
2022-11-05T11:19:24.314Z,77.23
2022-11-05T11:22:22.057Z,74.50
2022-11-05T11:24:53.977Z,73.07
2022-11-05T11:27:29.160Z,73.07
2022-11-05T11:30:04.954Z,72.91
2022-11-05T11:32:39.060Z,74.50
2022-11-05T11:35:08.453Z,74.67
2022-11-05T11:37:41.818Z,76.68
2022-11-05T11:40:19.326Z,78.23
2022-11-05T11:42:50.799Z,79.64
2022-11-05T11:45:37.589Z,80.65
2022-11-05T11:48:16.767Z,80.44
2022-11-05T11:50:45.867Z,81.87
2022-11-05T11:53:21.330Z,82.79
2022-11-05T11:56:03.932Z,83.55
2022-11-05T11:58:41.542Z,83.00
2022-11-05T12:01:26.319Z,83.36
2022-11-05T12:04:05.424Z,84.00
2022-11-05T12:06:55.233Z,84.46
2022-11-05T12:09:48.664Z,84.35
2022-11-05T12:12:20.281Z,84.13
2022-11-05T12:14:59.588Z,84.68
2022-11-05T12:17:38.814Z,84.68
2022-11-05T12:20:55.348Z,83.73
2022-11-05T12:23:55.158Z,84.11
2022-11-05T12:26:45.913Z,84.53
2022-11-05T12:29:50.838Z,84.59
2022-11-05T12:33:00.082Z,84.68
2022-11-05T12:35:26.457Z,83.77
2022-11-05T12:38:10.381Z,84.33
2022-11-05T12:41:07.596Z,83.87
2022-11-05T12:43:54.161Z,84.05
2022-11-05T12:46:34.736Z,84.53
2022-11-05T12:49:08.739Z,84.54
2022-11-05T12:52:06.263Z,84.85
2022-11-05T12:55:03.330Z,85.40
2022-11-05T12:57:32.079Z,85.88
2022-11-05T13:00:16.901Z,85.46
2022-11-05T13:02:55.945Z,85.61
2022-11-05T13:05:48.332Z,84.24
2022-11-05T13:08:16.860Z,84.34
2022-11-05T13:10:51.828Z,85.03
2022-11-05T13:13:26.953Z,85.41
2022-11-05T13:16:05.937Z,85.39
2022-11-05T13:18:45.460Z,85.65
2022-11-05T13:21:12.593Z,85.64
2022-11-05T13:23:48.633Z,85.23
2022-11-05T13:26:27.547Z,83.86
2022-11-05T13:29:02.038Z,84.20
2022-11-05T13:31:43.324Z,84.28
2022-11-05T13:34:12.020Z,85.30
2022-11-05T13:37:09.321Z,86.39
2022-11-05T13:39:48.927Z,84.65
2022-11-05T13:42:42.287Z,85.33
2022-11-05T13:45:14.685Z,86.05
2022-11-05T13:47:50.221Z,84.32
2022-11-05T13:50:41.430Z,85.30
2022-11-05T13:53:22.976Z,86.65
2022-11-05T13:56:25.169Z,85.82
2022-11-05T13:59:00.556Z,86.38
2022-11-05T14:01:39.130Z,86.09
2022-11-05T14:04:05.917Z,86.37
2022-11-05T14:06:36.024Z,85.95
2022-11-05T14:09:08.677Z,85.89
2022-11-05T14:11:38.075Z,85.42
2022-11-05T14:14:08.754Z,85.36
2022-11-05T14:17:07.012Z,86.31
2022-11-05T14:19:51.261Z,86.56
2022-11-05T14:22:32.782Z,86.88
2022-11-05T14:25:17.578Z,88.06
2022-11-05T14:27:49.278Z,89.08
2022-11-05T14:30:47.144Z,89.00
2022-11-05T14:33:17.128Z,89.15
2022-11-05T14:35:43.506Z,89.08
2022-11-05T14:38:24.884Z,89.63
2022-11-05T14:41:02.512Z,89.84
2022-11-05T14:43:33.350Z,90.14
2022-11-05T14:46:08.945Z,89.62
2022-11-05T14:48:38.645Z,89.94
2022-11-05T14:51:25.754Z,89.86
2022-11-05T14:54:08.150Z,90.09
2022-11-05T14:56:55.864Z,90.15
2022-11-05T14:59:28.116Z,90.08
2022-11-05T15:01:57.725Z,90.19
2022-11-05T15:04:29.058Z,89.94
2022-11-05T15:07:14.021Z,90.06
2022-11-05T15:09:48.618Z,89.24
2022-11-05T15:12:33.707Z,89.64
2022-11-05T15:15:21.453Z,89.71
2022-11-05T15:18:17.377Z,88.81
2022-11-05T15:20:49.617Z,89.22
2022-11-05T15:23:20.428Z,88.75
2022-11-05T15:26:10.582Z,89.00
2022-11-05T15:28:56.174Z,89.17
2022-11-05T15:31:41.849Z,89.76
2022-11-05T15:34:19.656Z,90.44
2022-11-05T15:36:55.413Z,90.83
2022-11-05T15:39:43.831Z,91.62
2022-11-05T15:42:23.963Z,91.60
2022-11-05T15:44:52.621Z,91.38
2022-11-05T15:47:27.718Z,91.57
2022-11-05T15:50:15.362Z,92.19
2022-11-05T15:52:50.883Z,92.62
2022-11-05T15:55:25.057Z,93.08
2022-11-05T15:58:03.707Z,92.97
2022-11-05T16:00:32.939Z,93.08
2022-11-05T16:03:15.839Z,93.62
2022-11-05T16:05:44.991Z,93.21
2022-11-05T16:08:16.701Z,92.70
2022-11-05T16:10:48.278Z,92.23
2022-11-05T16:13:34.849Z,91.85
2022-11-05T16:16:28.920Z,91.34
2022-11-05T16:18:55.273Z,91.19
2022-11-05T16:21:23.113Z,91.14
2022-11-05T16:23:49.560Z,91.67
2022-11-05T16:29:34.339Z,91.08
2022-11-05T16:32:18.265Z,90.99
2022-11-05T16:34:53.691Z,91.74
2022-11-05T16:37:23.552Z,92.15
2022-11-05T16:39:50.477Z,92.25
2022-11-05T16:42:22.992Z,91.31
2022-11-05T16:44:54.806Z,92.35
2022-11-05T16:47:22.472Z,91.64
2022-11-05T16:49:49.803Z,91.93
2022-11-05T16:52:16.486Z,91.97
2022-11-05T16:54:43.051Z,91.63
2022-11-05T16:57:28.154Z,92.02
2022-11-05T16:59:55.686Z,92.25
2022-11-05T17:02:22.265Z,92.49
2022-11-05T17:04:49.998Z,92.61
2022-11-05T17:07:16.501Z,92.05
2022-11-05T17:09:43.212Z,92.12
2022-11-05T17:12:11.061Z,91.67
2022-11-05T17:14:37.457Z,91.98
2022-11-05T17:17:05.281Z,92.04
2022-11-05T17:19:32.948Z,91.95
2022-11-05T17:21:59.431Z,92.09
2022-11-05T17:24:26.806Z,91.96
2022-11-05T17:26:53.253Z,91.75
2022-11-05T17:29:19.677Z,92.09
2022-11-05T17:31:46.147Z,91.97
2022-11-05T17:34:12.782Z,91.12
2022-11-05T17:36:39.206Z,91.54
2022-11-05T17:39:05.720Z,92.30
2022-11-05T17:41:32.081Z,91.78
2022-11-05T17:43:58.505Z,92.64
2022-11-05T17:46:25.113Z,92.30
2022-11-05T17:48:51.565Z,92.21
2022-11-05T17:51:19.207Z,92.36
2022-11-05T17:53:48.353Z,92.18
2022-11-05T17:56:27.640Z,92.16
2022-11-05T17:59:00.637Z,92.25
2022-11-05T18:01:33.957Z,91.75
2022-11-05T18:04:07.237Z,92.63
2022-11-05T18:06:34.900Z,91.95
2022-11-05T18:09:01.599Z,91.69
2022-11-05T18:11:27.933Z,92.82
2022-11-05T18:13:54.373Z,92.04
2022-11-05T18:16:20.711Z,91.90
2022-11-05T18:18:48.633Z,92.05
2022-11-05T18:21:15.585Z,91.64
2022-11-05T18:23:42.500Z,91.72
2022-11-05T18:26:14.089Z,91.96
2022-11-05T18:28:40.619Z,91.21
2022-11-05T18:31:18.303Z,91.44
2022-11-05T18:33:45.240Z,91.07
2022-11-05T18:36:24.433Z,90.69
2022-11-05T18:38:50.909Z,91.12
2022-11-05T18:41:18.336Z,91.22
2022-11-05T18:43:44.818Z,90.91
2022-11-05T18:46:29.437Z,91.67
2022-11-05T18:48:58.985Z,90.65
2022-11-05T18:51:26.054Z,91.27
2022-11-05T18:53:54.384Z,91.28
2022-11-05T18:56:21.473Z,91.45
2022-11-05T18:58:47.905Z,91.96
2022-11-05T19:01:16.751Z,91.83
2022-11-05T19:03:44.130Z,90.75
2022-11-05T19:06:11.135Z,91.25
2022-11-05T19:08:37.650Z,90.93
2022-11-05T19:11:10.258Z,91.38
2022-11-05T19:13:37.190Z,91.67
2022-11-05T19:16:07.741Z,91.49
2022-11-05T19:18:34.283Z,92.13
2022-11-05T19:21:00.622Z,91.78
2022-11-05T19:23:27.088Z,91.60
2022-11-05T19:25:53.519Z,91.60
2022-11-05T19:28:19.886Z,92.04
2022-11-05T19:30:46.283Z,91.79
2022-11-05T19:33:12.684Z,92.59
2022-11-05T19:35:41.490Z,92.50
2022-11-05T19:38:07.973Z,92.86
2022-11-05T19:40:37.460Z,92.86
2022-11-05T19:43:03.785Z,93.68
2022-11-05T19:45:44.082Z,93.56
2022-11-05T19:48:17.808Z,94.12
2022-11-05T19:50:45.722Z,94.16
2022-11-05T19:53:12.145Z,94.11
2022-11-05T19:55:41.771Z,93.87
2022-11-05T19:58:08.257Z,93.77
2022-11-05T20:00:35.184Z,93.37
2022-11-05T20:03:01.882Z,93.46
2022-11-05T20:05:28.304Z,94.08
2022-11-05T20:07:55.703Z,94.42
2022-11-05T20:10:22.120Z,94.58
2022-11-05T20:12:48.684Z,94.51
2022-11-05T20:15:15.262Z,93.89
2022-11-05T20:17:41.625Z,94.35
2022-11-05T20:20:08.476Z,93.55
2022-11-05T20:22:34.873Z,93.21
2022-11-05T20:25:01.180Z,94.12
2022-11-05T20:27:27.525Z,94.48
2022-11-05T20:29:53.970Z,94.30
2022-11-05T20:32:20.396Z,94.32
2022-11-05T20:34:46.836Z,94.38
2022-11-05T20:37:13.323Z,94.87
2022-11-05T20:39:39.653Z,95.05
2022-11-05T20:42:06.054Z,94.95
2022-11-05T20:44:32.396Z,94.57
2022-11-05T20:46:59.749Z,95.06
2022-11-05T20:49:26.231Z,95.28
2022-11-05T20:51:52.960Z,95.13
2022-11-05T20:54:19.355Z,95.47
2022-11-05T20:56:45.997Z,95.55
2022-11-05T20:59:12.318Z,95.40
2022-11-05T21:01:38.902Z,95.32
2022-11-05T21:04:05.571Z,95.29
2022-11-05T21:06:32.904Z,95.36
2022-11-05T21:08:59.554Z,95.41
2022-11-05T21:11:26.132Z,95.60
2022-11-05T21:13:52.564Z,95.54
2022-11-05T21:16:20.319Z,95.58
2022-11-05T21:18:47.576Z,95.29
2022-11-05T21:21:19.156Z,95.48
2022-11-05T21:23:45.771Z,95.13
2022-11-05T21:26:13.944Z,94.76
2022-11-05T21:28:41.447Z,93.31
2022-11-05T21:31:09.128Z,93.36
2022-11-05T21:33:35.681Z,94.30
2022-11-05T21:36:07.586Z,94.54
2022-11-05T21:38:33.990Z,94.35
2022-11-05T21:41:02.738Z,94.57
2022-11-05T21:43:29.175Z,94.42
2022-11-05T21:45:55.562Z,94.23
2022-11-05T21:48:21.881Z,94.31
2022-11-05T21:51:10.575Z,94.36
2022-11-05T21:53:55.236Z,94.47
2022-11-05T21:56:43.534Z,94.37
2022-11-05T21:59:30.379Z,93.88
2022-11-05T22:02:01.361Z,94.11
2022-11-05T22:04:30.488Z,94.04
2022-11-05T22:06:57.000Z,93.97
2022-11-05T22:09:24.693Z,94.27
2022-11-05T22:11:51.201Z,94.12
2022-11-05T22:14:17.640Z,94.10
2022-11-05T22:16:44.125Z,94.52
2022-11-05T22:19:11.202Z,94.46
2022-11-05T22:21:37.748Z,94.78
2022-11-05T22:24:05.183Z,94.41
2022-11-05T22:26:31.565Z,93.95
2022-11-05T22:28:57.875Z,94.46
2022-11-05T22:31:24.261Z,94.39
2022-11-05T22:33:50.824Z,94.46
2022-11-05T22:36:17.164Z,94.48
2022-11-05T22:38:43.574Z,94.13
2022-11-05T22:41:12.750Z,93.86
2022-11-05T22:43:39.452Z,93.78
2022-11-05T22:46:10.033Z,93.29
2022-11-05T22:48:38.027Z,94.02
2022-11-05T22:51:17.669Z,94.00
2022-11-05T22:53:44.485Z,94.05
2022-11-05T22:56:13.549Z,94.07
2022-11-05T22:58:40.204Z,93.44
2022-11-05T23:01:08.956Z,93.43
2022-11-05T23:03:35.359Z,93.53
2022-11-05T23:06:05.170Z,93.49
2022-11-05T23:08:50.720Z,94.31
2022-11-05T23:11:38.699Z,94.04
2022-11-05T23:14:07.832Z,93.74
2022-11-05T23:16:53.620Z,93.49
2022-11-05T23:19:39.012Z,93.42
2022-11-05T23:22:45.889Z,94.25
2022-11-05T23:25:17.097Z,94.09
2022-11-05T23:27:44.271Z,94.45
2022-11-05T23:30:14.775Z,94.79
2022-11-05T23:32:41.170Z,95.26
2022-11-05T23:35:08.632Z,94.52
2022-11-05T23:37:53.650Z,94.58
2022-11-05T23:40:28.636Z,94.46
2022-11-05T23:43:14.451Z,95.10
2022-11-05T23:45:59.111Z,95.32
2022-11-05T23:48:31.765Z,95.55
2022-11-05T23:51:09.848Z,95.33
2022-11-05T23:53:38.283Z,95.47
2022-11-05T23:56:11.581Z,95.71
2022-11-05T23:58:39.506Z,95.75
